Time;durP1;ratioP1;P1;durP2;ratioP2;P2;SDS_P1;SDS_P2;PMS_P1;PMS_P2;Temp;Humidity;BMP_temperature;BMP_pressure;BME280_temperature;BME280_humidity;BME280_pressure;Samples;Min_cycle;Max_cycle;Signal;HPM_P1;HPM_P2
2024/01/15 00:00:18;;;;;;;;;;;;;;;5.11;57.58;99397.03;4958920;28;7126;-74
2024/01/15 00:02:44;;;;;;;;;;;;;;;5.11;57.90;99388.53;4958535;28;7268;-74
2024/01/15 00:05:10;;;;;;;;;;;;;;;5.10;57.40;99385.13;4955743;28;7191;-73
2024/01/15 00:07:36;;;;;;;;;;;;;;;5.11;58.07;99386.84;4960048;28;7020;-73
2024/01/15 00:10:02;;;;;;;;;;;;;;;5.10;57.80;99385.13;4951164;28;7560;-75
2024/01/15 00:12:28;;;;;;;;;;;;;;;5.12;57.78;99385.22;4950869;28;7044;-74
2024/01/15 00:14:54;;;;;;;;;;;;;;;5.11;58.17;99376.69;4960392;28;7156;-72
2024/01/15 00:17:20;;;;;;;;;;;;;;;5.15;57.79;99377.75;4959309;28;6788;-73
2024/01/15 00:19:45;;;;;;;;;;;;;;;5.17;57.66;99375.28;4961089;28;6796;-72
2024/01/15 00:22:11;;;;;;;;;;;;;;;5.19;57.84;99366.09;4960248;28;7150;-72
2024/01/15 00:24:36;;;;;;;;;;;;;;;5.22;58.09;99356.09;4951535;28;7036;-72
2024/01/15 00:27:02;;;;;;;;;;;;;;;5.25;57.62;99353.72;4960735;28;6922;-74
2024/01/15 00:29:28;;;;;;;;;;;;;;;5.26;57.50;99335.13;4941386;28;6809;-74
2024/01/15 00:31:54;;;;;;;;;;;;;;;5.27;57.47;99349.56;4950587;28;8043;-74
2024/01/15 00:34:19;;;;;;;;;;;;;;;5.29;57.70;99355.59;4959776;28;6933;-73
2024/01/15 00:36:45;;;;;;;;;;;;;;;5.27;57.63;99342.84;4958993;28;7167;-73
2024/01/15 00:39:11;;;;;;;;;;;;;;;5.26;57.65;99361.44;4946882;28;6934;-74
2024/01/15 00:41:36;;;;;;;;;;;;;;;5.29;57.64;99365.78;4962669;28;6998;-73
2024/01/15 00:44:02;;;;;;;;;;;;;;;5.29;57.58;99350.53;4957478;28;6776;-79
2024/01/15 00:46:28;;;;;;;;;;;;;;;5.29;57.58;99340.34;4961937;28;8442;-81
2024/01/15 00:48:54;;;;;;;;;;;;;;;5.30;57.78;99352.28;4965421;28;6792;-78
2024/01/15 00:51:20;;;;;;;;;;;;;;;5.30;57.77;99336.16;4943440;28;6780;-80
2024/01/15 00:53:45;;;;;;;;;;;;;;;5.28;57.70;99358.94;4963424;28;6951;-78
2024/01/15 00:56:11;;;;;;;;;;;;;;;5.27;57.67;99352.13;4927628;28;8375;-80
2024/01/15 00:58:37;;;;;;;;;;;;;;;5.26;57.48;99355.44;4968519;28;6961;-80
2024/01/15 01:01:02;;;;;;;;;;;;;;;5.23;57.48;99346.00;4962478;28;6949;-80
2024/01/15 01:03:28;;;;;;;;;;;;;;;5.23;57.74;99357.84;4961877;28;6792;-75
2024/01/15 01:05:54;;;;;;;;;;;;;;;5.21;57.71;99342.50;4944202;28;8397;-78
2024/01/15 01:08:19;;;;;;;;;;;;;;;5.21;57.95;99349.25;4960238;28;8467;-80
2024/01/15 01:10:45;;;;;;;;;;;;;;;5.20;58.02;99352.56;4945225;28;7324;-79
2024/01/15 01:13:10;;;;;;;;;;;;;;;5.21;57.51;99349.25;4962768;28;6902;-80
2024/01/15 01:15:37;;;;;;;;;;;;;;;5.20;57.71;99350.03;4962168;28;8312;-79
2024/01/15 01:18:03;;;;;;;;;;;;;;;5.17;58.06;99342.25;4960645;28;7249;-80
2024/01/15 01:20:28;;;;;;;;;;;;;;;5.17;58.12;99345.69;4963425;28;7025;-81
2024/01/15 01:22:54;;;;;;;;;;;;;;;5.19;58.20;99339.03;4960903;28;6979;-79
2024/01/15 01:25:20;;;;;;;;;;;;;;;5.22;57.71;99340.84;4961059;28;6776;-75
2024/01/15 01:27:45;;;;;;;;;;;;;;;5.23;58.33;99335.84;4963372;28;6941;-79
2024/01/15 01:30:11;;;;;;;;;;;;;;;5.25;58.29;99325.75;4962084;28;6780;-81
2024/01/15 01:32:36;;;;;;;;;;;;;;;5.24;58.04;99327.41;4954453;28;6788;-80
2024/01/15 01:35:02;;;;;;;;;;;;;;;5.27;58.46;99334.34;4942667;28;7049;-76
2024/01/15 01:37:28;;;;;;;;;;;;;;;5.27;58.39;99332.69;4941162;28;7031;-79
2024/01/15 01:39:53;;;;;;;;;;;;;;;5.27;58.14;99329.25;4954605;28;7069;-80
2024/01/15 01:42:19;;;;;;;;;;;;;;;5.29;57.88;99332.72;4964654;28;6764;-79
2024/01/15 01:44:45;;;;;;;;;;;;;;;5.31;57.97;99337.91;4957287;28;6848;-81
2024/01/15 01:47:10;;;;;;;;;;;;;;;5.31;58.35;99355.69;4957272;28;6963;-79
2024/01/15 01:49:37;;;;;;;;;;;;;;;5.31;58.20;99343.88;4957122;28;6948;-78
2024/01/15 01:52:07;;;;;;;;;;;;;;;5.31;58.27;99353.16;4948242;28;6792;-79
2024/01/15 01:54:33;;;;;;;;;;;;;;;5.30;58.33;99353.94;4958411;28;7054;-73
2024/01/15 01:57:02;;;;;;;;;;;;;;;5.28;58.07;99348.78;4957700;28;7200;-73
2024/01/15 01:59:28;;;;;;;;;;;;;;;5.25;58.29;99333.38;4953008;28;7566;-73
2024/01/15 02:01:55;;;;;;;;;;;;;;;5.21;58.05;99339.09;4956782;28;6828;-72
2024/01/15 02:04:24;;;;;;;;;;;;;;;5.16;58.47;99337.97;4952389;28;6967;-73
2024/01/15 02:06:51;;;;;;;;;;;;;;;5.13;58.47;99333.59;4938779;28;7073;-74
2024/01/15 02:09:20;;;;;;;;;;;;;;;5.11;58.60;99333.50;4945736;28;6980;-73
2024/01/15 02:11:49;;;;;;;;;;;;;;;5.10;58.89;99334.31;4948422;28;7078;-73
2024/01/15 02:14:15;;;;;;;;;;;;;;;5.09;58.86;99329.16;4958341;28;7288;-74
2024/01/15 02:16:41;;;;;;;;;;;;;;;5.07;58.64;99331.63;4960218;28;7250;-75
2024/01/15 02:19:07;;;;;;;;;;;;;;;5.06;58.53;99329.88;4946857;28;6895;-74
2024/01/15 02:21:33;;;;;;;;;;;;;;;5.03;58.81;99322.09;4963779;28;6972;-74
2024/01/15 02:23:59;;;;;;;;;;;;;;;5.02;58.95;99324.56;4945022;28;6956;-72
2024/01/15 02:26:25;;;;;;;;;;;;;;;5.02;59.35;99324.56;4946196;28;6999;-74
2024/01/15 02:28:51;;;;;;;;;;;;;;;4.98;58.89;99324.41;4953753;28;7272;-73
2024/01/15 02:31:17;;;;;;;;;;;;;;;4.97;59.10;99321.78;4952576;28;6776;-74
2024/01/15 02:33:45;;;;;;;;;;;;;;;4.97;59.30;99326.84;4955642;28;6885;-72
2024/01/15 02:36:11;;;;;;;;;;;;;;;4.97;59.41;99326.84;4955211;28;6800;-73
2024/01/15 02:38:37;;;;;;;;;;;;;;;4.97;59.17;99326.84;4958645;28;6963;-72
2024/01/15 02:41:03;;;;;;;;;;;;;;;4.98;59.11;99328.59;4956604;28;7241;-74
2024/01/15 02:43:28;;;;;;;;;;;;;;;4.99;59.04;99325.25;4955614;28;6966;-73
2024/01/15 02:45:54;;;;;;;;;;;;;;;5.00;59.69;99316.84;4959270;28;6780;-75
2024/01/15 02:48:19;;;;;;;;;;;;;;;5.02;59.44;99317.78;4952374;28;6937;-73
2024/01/15 02:50:45;;;;;;;;;;;;;;;5.03;59.08;99317.03;4946049;28;6963;-75
2024/01/15 02:53:11;;;;;;;;;;;;;;;5.06;59.70;99321.38;4953792;28;6836;-73
2024/01/15 02:55:36;;;;;;;;;;;;;;;5.06;59.58;99317.19;4959121;28;7168;-76
2024/01/15 02:58:03;;;;;;;;;;;;;;;5.09;59.67;99326.63;4957494;28;7215;-72
2024/01/15 03:00:29;;;;;;;;;;;;;;;5.08;59.25;99328.28;4955697;28;6836;-73
2024/01/15 03:02:55;;;;;;;;;;;;;;;5.11;59.80;99330.97;4960903;28;6970;-76
2024/01/15 03:05:20;;;;;;;;;;;;;;;5.12;59.19;99329.31;4957153;28;6930;-76
2024/01/15 03:07:46;;;;;;;;;;;;;;;5.14;59.31;99332.81;4955600;28;7258;-76
2024/01/15 03:10:12;;;;;;;;;;;;;;;5.14;59.57;99315.91;4954119;28;6937;-76
2024/01/15 03:12:37;;;;;;;;;;;;;;;5.16;59.27;99315.97;4948681;28;6979;-76
2024/01/15 03:15:03;;;;;;;;;;;;;;;5.17;59.40;99310.13;4942631;28;6957;-76
2024/01/15 03:17:29;;;;;;;;;;;;;;;5.16;59.47;99302.41;4952880;28;7207;-76
2024/01/15 03:19:55;;;;;;;;;;;;;;;5.17;59.46;99315.22;4957294;28;7707;-76
2024/01/15 03:22:20;;;;;;;;;;;;;;;5.16;59.47;99308.34;4960125;28;7077;-76
2024/01/15 03:24:46;;;;;;;;;;;;;;;5.18;59.31;99311.88;4958480;28;7869;-76
2024/01/15 03:27:11;;;;;;;;;;;;;;;5.18;59.53;99311.88;4962599;28;6784;-76
2024/01/15 03:29:37;;;;;;;;;;;;;;;5.17;59.66;99312.66;4933850;28;7254;-76
2024/01/15 03:32:03;;;;;;;;;;;;;;;5.16;59.32;99308.34;4957794;28;6791;-76
2024/01/15 03:34:28;;;;;;;;;;;;;;;5.17;59.54;99304.16;4945286;28;7007;-76
2024/01/15 03:36:54;;;;;;;;;;;;;;;5.18;59.69;99311.88;4962697;28;6844;-76
2024/01/15 03:39:20;;;;;;;;;;;;;;;5.18;59.57;99305.91;4941391;28;6788;-76
2024/01/15 03:41:45;;;;;;;;;;;;;;;5.19;59.48;99312.72;4959571;28;7142;-77
2024/01/15 03:44:11;;;;;;;;;;;;;;;5.22;59.78;99305.28;4945365;28;7015;-76
2024/01/15 03:46:36;;;;;;;;;;;;;;;5.23;59.29;99312.97;4958947;28;6852;-76
2024/01/15 03:49:02;;;;;;;;;;;;;;;5.25;59.62;99303.75;4957961;28;7370;-76
2024/01/15 03:51:28;;;;;;;;;;;;;;;5.27;59.51;99306.38;4944001;28;7222;-76
2024/01/15 03:53:53;;;;;;;;;;;;;;;5.30;59.87;99298.91;4960063;28;6956;-76
2024/01/15 03:56:19;;;;;;;;;;;;;;;5.34;59.54;99294.84;4956846;28;6776;-76
2024/01/15 03:58:44;;;;;;;;;;;;;;;5.36;59.57;99293.25;4959092;28;6842;-76
2024/01/15 04:01:10;;;;;;;;;;;;;;;5.35;59.70;99279.69;4945048;28;7038;-75
2024/01/15 04:03:37;;;;;;;;;;;;;;;5.36;59.67;99289.06;4960988;28;8743;-76
2024/01/15 04:06:04;;;;;;;;;;;;;;;5.37;59.51;99292.50;4957060;28;8113;-76
2024/01/15 04:08:29;;;;;;;;;;;;;;;5.35;59.49;99282.25;4944250;28;7053;-76
2024/01/15 04:10:55;;;;;;;;;;;;;;;5.35;59.63;99282.25;4957527;28;6859;-76
2024/01/15 04:13:21;;;;;;;;;;;;;;;5.37;59.63;99278.09;4958132;28;6943;-76
2024/01/15 04:15:47;;;;;;;;;;;;;;;5.37;59.18;99282.34;4958985;28;6784;-76
2024/01/15 04:18:12;;;;;;;;;;;;;;;5.37;59.53;99267.94;4952257;28;7154;-79
2024/01/15 04:20:38;;;;;;;;;;;;;;;5.38;59.39;99279.00;4963903;28;6848;-77
2024/01/15 04:23:04;;;;;;;;;;;;;;;5.36;59.62;99273.81;4963988;28;7234;-80
2024/01/15 04:25:30;;;;;;;;;;;;;;;5.35;59.44;99264.47;4954764;28;6976;-79
2024/01/15 04:27:56;;;;;;;;;;;;;;;5.35;59.73;99271.19;4961858;28;7243;-78
2024/01/15 04:30:21;;;;;;;;;;;;;;;5.36;59.89;99262.78;4960832;28;7329;-79
2024/01/15 04:32:47;;;;;;;;;;;;;;;5.36;59.30;99263.66;4958406;28;7673;-79
2024/01/15 04:35:13;;;;;;;;;;;;;;;5.36;59.57;99263.66;4950507;28;8442;-77
2024/01/15 04:37:39;;;;;;;;;;;;;;;5.39;59.90;99263.81;4946475;28;8508;-76
2024/01/15 04:40:06;;;;;;;;;;;;;;;5.42;59.58;99255.47;4969129;28;6785;-77
2024/01/15 04:42:32;;;;;;;;;;;;;;;5.44;59.96;99258.94;4952851;28;6987;-78
2024/01/15 04:44:58;;;;;;;;;;;;;;;5.44;59.84;99258.09;4957189;28;7063;-78
2024/01/15 04:47:23;;;;;;;;;;;;;;;5.44;59.78;99263.19;4960452;28;7061;-77
2024/01/15 04:49:49;;;;;;;;;;;;;;;5.44;59.53;99268.25;4957122;28;6776;-77
2024/01/15 04:52:15;;;;;;;;;;;;;;;5.41;59.44;99254.63;4949803;28;6772;-78
2024/01/15 04:54:40;;;;;;;;;;;;;;;5.40;59.27;99257.06;4944868;28;7168;-79
2024/01/15 04:57:06;;;;;;;;;;;;;;;5.40;59.72;99260.47;4958498;28;6911;-76
2024/01/15 04:59:32;;;;;;;;;;;;;;;5.41;59.72;99254.63;4959449;28;6843;-78
2024/01/15 05:01:57;;;;;;;;;;;;;;;5.41;59.72;99253.72;4958788;28;6947;-75
2024/01/15 05:04:24;;;;;;;;;;;;;;;5.43;59.93;99257.22;4946421;28;8680;-78
2024/01/15 05:06:50;;;;;;;;;;;;;;;5.45;59.79;99252.22;4963674;28;6808;-77
2024/01/15 05:09:17;;;;;;;;;;;;;;;5.46;60.06;99253.97;4957271;28;7882;-75
2024/01/15 05:11:43;;;;;;;;;;;;;;;5.46;59.45;99253.97;4968264;28;7248;-78
2024/01/15 05:14:09;;;;;;;;;;;;;;;5.45;59.67;99248.00;4943977;28;7230;-74
2024/01/15 05:16:38;;;;;;;;;;;;;;;5.45;59.72;99242.91;4948010;28;6915;-78
2024/01/15 05:19:03;;;;;;;;;;;;;;;5.47;59.73;99254.03;4958873;28;6941;-77
2024/01/15 05:21:29;;;;;;;;;;;;;;;5.48;59.74;99250.69;4959145;28;7070;-77
2024/01/15 05:23:55;;;;;;;;;;;;;;;5.50;60.25;99240.59;4963818;28;6780;-77
2024/01/15 05:26:20;;;;;;;;;;;;;;;5.52;60.13;99244.09;4927761;28;7051;-75
2024/01/15 05:28:46;;;;;;;;;;;;;;;5.53;59.61;99245.84;4941894;28;7104;-75
2024/01/15 05:31:11;;;;;;;;;;;;;;;5.54;59.81;99245.03;4943209;28;6972;-75
2024/01/15 05:33:37;;;;;;;;;;;;;;;5.55;59.47;99246.78;4954920;28;7017;-75
2024/01/15 05:36:03;;;;;;;;;;;;;;;5.53;59.52;99245.84;4958504;28;6772;-76
2024/01/15 05:38:29;;;;;;;;;;;;;;;5.50;59.79;99238.94;4956631;28;7210;-76
2024/01/15 05:40:54;;;;;;;;;;;;;;;5.49;59.41;99249.00;4926960;28;8372;-76
2024/01/15 05:43:20;;;;;;;;;;;;;;;5.48;59.36;99249.81;4924371;28;6980;-75
2024/01/15 05:45:46;;;;;;;;;;;;;;;5.47;59.40;99243.00;4957887;28;6839;-75
2024/01/15 05:48:12;;;;;;;;;;;;;;;5.46;59.71;99242.13;4953797;28;7223;-75
2024/01/15 05:50:38;;;;;;;;;;;;;;;5.47;59.45;99240.44;4958500;28;6800;-76
2024/01/15 05:53:04;;;;;;;;;;;;;;;5.46;59.50;99242.13;4947054;28;6952;-76
2024/01/15 05:55:29;;;;;;;;;;;;;;;5.48;59.49;99242.19;4935627;28;7003;-75
2024/01/15 05:57:55;;;;;;;;;;;;;;;5.46;59.42;99228.53;4951898;28;8545;-75
2024/01/15 06:00:21;;;;;;;;;;;;;;;5.46;59.57;99226.00;4957106;28;6785;-75
2024/01/15 06:02:46;;;;;;;;;;;;;;;5.44;59.48;99225.06;4955010;28;7243;-75
2024/01/15 06:05:12;;;;;;;;;;;;;;;5.42;59.62;99220.78;4952682;28;6960;-75
2024/01/15 06:07:38;;;;;;;;;;;;;;;5.41;59.75;99213.94;4955837;28;6925;-75
2024/01/15 06:10:04;;;;;;;;;;;;;;;5.38;60.08;99216.31;4940167;28;6832;-75
2024/01/15 06:12:30;;;;;;;;;;;;;;;5.37;59.33;99213.72;4958206;28;6788;-75
2024/01/15 06:14:56;;;;;;;;;;;;;;;5.35;59.71;99207.66;4955268;28;6844;-75
2024/01/15 06:17:22;;;;;;;;;;;;;;;5.32;60.11;99208.41;4956885;28;7805;-75
2024/01/15 06:19:47;;;;;;;;;;;;;;;5.31;59.95;99209.22;4964118;28;9241;-75
2024/01/15 06:22:13;;;;;;;;;;;;;;;5.31;60.35;99211.75;4945147;28;6760;-74
2024/01/15 06:24:39;;;;;;;;;;;;;;;5.33;60.35;99211.81;4954498;28;6776;-75
2024/01/15 06:27:04;;;;;;;;;;;;;;;5.36;59.72;99212.84;4942209;28;8224;-74
2024/01/15 06:29:30;;;;;;;;;;;;;;;5.38;60.06;99213.78;4938043;28;6788;-75
2024/01/15 06:31:56;;;;;;;;;;;;;;;5.40;60.07;99212.19;4958710;28;6772;-75
2024/01/15 06:34:21;;;;;;;;;;;;;;;5.41;59.73;99206.31;4939997;28;6953;-73
2024/01/15 06:36:47;;;;;;;;;;;;;;;5.43;60.20;99211.47;4946248;28;7179;-72
2024/01/15 06:39:13;;;;;;;;;;;;;;;5.45;60.02;99203.94;4959512;28;7074;-73
2024/01/15 06:41:43;;;;;;;;;;;;;;;5.48;60.18;99206.63;4959458;28;6902;-74
2024/01/15 06:44:11;;;;;;;;;;;;;;;5.49;60.04;99211.78;4960069;28;7237;-73
2024/01/15 06:46:36;;;;;;;;;;;;;;;5.50;59.61;99213.53;4960978;28;7440;-71
2024/01/15 06:49:02;;;;;;;;;;;;;;;5.52;59.96;99221.22;4957727;28;6903;-74
2024/01/15 06:51:29;;;;;;;;;;;;;;;5.51;59.71;99210.19;4960288;28;6780;-73
2024/01/15 06:53:55;;;;;;;;;;;;;;;5.51;59.70;99209.31;4958048;28;8037;-73
2024/01/15 06:56:20;;;;;;;;;;;;;;;5.52;60.27;99203.44;4963323;28;6780;-75
2024/01/15 06:58:46;;;;;;;;;;;;;;;5.52;59.80;99205.97;4960930;28;6772;-73
2024/01/15 07:01:12;;;;;;;;;;;;;;;5.53;59.78;99205.19;4959084;28;6772;-74
2024/01/15 07:03:38;;;;;;;;;;;;;;;5.55;59.98;99201.94;4952699;28;7135;-72
2024/01/15 07:06:04;;;;;;;;;;;;;;;5.55;59.52;99196.84;4954034;28;7018;-73
2024/01/15 07:08:30;;;;;;;;;;;;;;;5.57;59.88;99199.44;4962214;28;6802;-73
2024/01/15 07:10:55;;;;;;;;;;;;;;;5.56;59.94;99197.69;4952050;28;6969;-72
2024/01/15 07:13:21;;;;;;;;;;;;;;;5.55;59.43;99184.13;4959126;28;6796;-74
2024/01/15 07:15:46;;;;;;;;;;;;;;;5.54;59.68;99189.13;4952373;28;7166;-72
2024/01/15 07:18:12;;;;;;;;;;;;;;;5.52;59.82;99191.59;4953026;28;7247;-75
2024/01/15 07:20:38;;;;;;;;;;;;;;;5.50;59.37;99199.94;4960412;28;6965;-72
2024/01/15 07:23:04;;;;;;;;;;;;;;;5.51;60.22;99197.47;4962228;28;6944;-75
2024/01/15 07:25:29;;;;;;;;;;;;;;;5.52;59.50;99191.59;4951443;28;8470;-72
2024/01/15 07:27:55;;;;;;;;;;;;;;;5.52;59.92;99183.97;4965800;28;7120;-73
2024/01/15 07:30:21;;;;;;;;;;;;;;;5.50;59.46;99193.19;4962046;28;6868;-75
2024/01/15 07:32:47;;;;;;;;;;;;;;;5.51;59.74;99189.84;4948280;28;7031;-73
2024/01/15 07:35:15;;;;;;;;;;;;;;;5.52;59.72;99195.81;4941544;28;7262;-73
2024/01/15 07:37:41;;;;;;;;;;;;;;;5.53;60.09;99195.00;4947457;28;7070;-73
2024/01/15 07:40:08;;;;;;;;;;;;;;;5.54;59.76;99199.28;4963118;28;7199;-73
2024/01/15 07:42:34;;;;;;;;;;;;;;;5.56;59.55;99206.22;4945203;28;6945;-74
2024/01/15 07:45:01;;;;;;;;;;;;;;;5.57;59.43;99199.44;4962642;28;6780;-76
2024/01/15 07:47:27;;;;;;;;;;;;;;;5.57;59.84;99201.97;4943134;28;6990;-76
2024/01/15 07:49:53;;;;;;;;;;;;;;;5.58;59.82;99205.41;4947054;28;7191;-75
2024/01/15 07:52:19;;;;;;;;;;;;;;;5.55;59.58;99196.84;4949596;28;7046;-75
2024/01/15 07:54:45;;;;;;;;;;;;;;;5.55;59.48;99206.13;4957037;28;6852;-76
2024/01/15 07:57:11;;;;;;;;;;;;;;;5.56;59.64;99205.31;4948032;28;7212;-75
2024/01/15 07:59:36;;;;;;;;;;;;;;;5.56;59.85;99200.25;4952820;28;9012;-75
2024/01/15 08:02:02;;;;;;;;;;;;;;;5.57;59.93;99199.44;4958557;28;7288;-75
2024/01/15 08:04:28;;;;;;;;;;;;;;;5.56;59.74;99196.03;4948463;28;7319;-75
2024/01/15 08:06:54;;;;;;;;;;;;;;;5.55;59.20;99196.84;4959877;28;6780;-75
2024/01/15 08:09:20;;;;;;;;;;;;;;;5.55;59.44;99188.31;4955442;28;6776;-75
2024/01/15 08:11:46;;;;;;;;;;;;;;;5.53;59.30;99193.31;4949909;28;6986;-75
2024/01/15 08:14:12;;;;;;;;;;;;;;;5.52;59.56;99195.81;4948935;28;7420;-75
2024/01/15 08:16:38;;;;;;;;;;;;;;;5.51;59.90;99189.00;4940915;28;6848;-76
2024/01/15 08:19:05;;;;;;;;;;;;;;;5.50;59.50;99183.03;4959629;28;7292;-75
2024/01/15 08:21:31;;;;;;;;;;;;;;;5.49;59.45;99186.38;4956037;28;6806;-75
2024/01/15 08:24:04;;;;;;;;;;;;;;;5.49;59.60;99185.47;4965858;28;6784;-75
2024/01/15 08:26:30;;;;;;;;;;;;;;;5.50;59.74;99185.56;4959968;28;6876;-75
2024/01/15 08:28:56;;;;;;;;;;;;;;;5.52;59.77;99190.72;4942767;28;7124;-76
2024/01/15 08:31:21;;;;;;;;;;;;;;;5.52;59.31;99191.59;4948405;28;6997;-76
2024/01/15 08:33:47;;;;;;;;;;;;;;;5.53;59.61;99178.06;4949230;28;6773;-76
2024/01/15 08:36:13;;;;;;;;;;;;;;;5.51;59.78;99176.28;4959495;28;6772;-75
2024/01/15 08:38:39;;;;;;;;;;;;;;;5.50;59.42;99187.22;4957066;28;6775;-75
2024/01/15 08:41:04;;;;;;;;;;;;;;;5.49;59.36;99198.19;4925644;28;7420;-75
2024/01/15 08:43:33;;;;;;;;;;;;;;;5.46;59.55;99188.78;4945134;28;6976;-75
2024/01/15 08:45:59;;;;;;;;;;;;;;;5.45;59.83;99173.44;4954449;28;7148;-75
2024/01/15 08:48:28;;;;;;;;;;;;;;;5.42;59.25;99190.28;4942196;28;6840;-75
2024/01/15 08:50:54;;;;;;;;;;;;;;;5.41;59.76;99216.50;4958286;28;6872;-75
2024/01/15 08:53:20;;;;;;;;;;;;;;;5.40;59.73;99217.25;4955641;28;7190;-75
2024/01/15 08:55:46;;;;;;;;;;;;;;;5.41;60.20;99229.19;4960835;28;6859;-76
2024/01/15 08:58:12;;;;;;;;;;;;;;;5.42;59.82;99225.84;4950254;28;6950;-75
2024/01/15 09:00:37;;;;;;;;;;;;;;;5.44;59.81;99233.53;4957406;28;7081;-76
2024/01/15 09:03:03;;;;;;;;;;;;;;;5.45;59.93;99234.44;4958841;28;6787;-74
2024/01/15 09:05:29;;;;;;;;;;;;;;;5.45;59.82;99235.28;4949562;28;7188;-75
2024/01/15 09:07:54;;;;;;;;;;;;;;;5.48;59.83;99243.06;4949298;28;6773;-76
2024/01/15 09:10:20;;;;;;;;;;;;;;;5.51;59.64;99248.31;4942885;28;6760;-76
2024/01/15 09:12:46;;;;;;;;;;;;;;;5.53;60.22;99246.72;4959958;28;7349;-76
2024/01/15 09:15:12;;;;;;;;;;;;;;;5.55;59.95;99256.97;4944560;28;8911;-75
2024/01/15 09:17:38;;;;;;;;;;;;;;;5.57;60.06;99255.34;4958173;28;6764;-75
2024/01/15 09:20:05;;;;;;;;;;;;;;;5.57;59.68;99255.34;4942700;28;6937;-74
2024/01/15 09:22:31;;;;;;;;;;;;;;;5.56;59.59;99256.16;4959427;28;6860;-75
2024/01/15 09:24:57;;;;;;;;;;;;;;;5.55;59.78;99251.88;4944698;28;7022;-75
2024/01/15 09:27:25;;;;;;;;;;;;;;;5.55;59.44;99250.22;4960137;28;8479;-76
2024/01/15 09:29:51;;;;;;;;;;;;;;;5.57;59.54;99255.34;4961058;28;7285;-74
2024/01/15 09:32:18;;;;;;;;;;;;;;;5.56;59.71;99254.50;4961608;28;6908;-75
2024/01/15 09:34:46;;;;;;;;;;;;;;;5.58;59.88;99253.69;4950406;28;7069;-74
2024/01/15 09:37:14;;;;;;;;;;;;;;;5.57;59.87;99247.72;4948372;28;6796;-74
2024/01/15 09:39:39;;;;;;;;;;;;;;;5.57;59.62;99257.91;4951582;28;6800;-73
2024/01/15 09:42:05;;;;;;;;;;;;;;;5.58;59.82;99259.66;4960979;28;6761;-75
2024/01/15 09:44:31;;;;;;;;;;;;;;;5.59;59.76;99270.69;4960600;28;6780;-75
2024/01/15 09:46:57;;;;;;;;;;;;;;;5.58;59.47;99258.78;4958512;28;6788;-75
2024/01/15 09:49:23;;;;;;;;;;;;;;;5.55;59.32;99257.84;4931895;28;7025;-75
2024/01/15 09:51:49;;;;;;;;;;;;;;;5.52;59.31;99265.28;4946346;28;6963;-75
2024/01/15 09:54:17;;;;;;;;;;;;;;;5.51;59.40;99276.25;4958528;28;6826;-75
2024/01/15 09:56:47;;;;;;;;;;;;;;;5.50;59.60;99271.09;4949325;28;6784;-76
2024/01/15 09:59:19;;;;;;;;;;;;;;;5.47;59.53;99269.28;4941595;28;7327;-76
2024/01/15 10:01:47;;;;;;;;;;;;;;;5.45;59.58;99272.53;4943337;28;6796;-76
2024/01/15 10:04:13;;;;;;;;;;;;;;;5.43;59.32;99272.47;4938612;28;7076;-77
2024/01/15 10:06:45;;;;;;;;;;;;;;;5.41;59.56;99264.78;4955667;28;6788;-71
2024/01/15 10:09:14;;;;;;;;;;;;;;;5.41;59.65;99279.13;4948911;28;7291;-73
2024/01/15 10:11:42;;;;;;;;;;;;;;;5.41;59.41;99282.56;4940241;28;7155;-73
2024/01/15 10:14:12;;;;;;;;;;;;;;;5.40;59.48;99277.41;4958840;28;6800;-71
2024/01/15 10:16:41;;;;;;;;;;;;;;;5.38;59.55;99268.84;4956197;28;7219;-72
2024/01/15 10:19:08;;;;;;;;;;;;;;;5.38;59.09;99277.31;4955418;28;7218;-73
2024/01/15 10:21:34;;;;;;;;;;;;;;;5.38;60.06;99269.69;4950276;28;6975;-72
2024/01/15 10:24:01;;;;;;;;;;;;;;;5.38;59.31;99279.84;4943204;28;6983;-71
2024/01/15 10:26:26;;;;;;;;;;;;;;;5.40;59.31;99278.25;4947191;28;6964;-71
2024/01/15 10:28:52;;;;;;;;;;;;;;;5.41;59.89;99274.94;4960585;28;6894;-71
2024/01/15 10:31:19;;;;;;;;;;;;;;;5.42;59.32;99274.16;4951201;28;7340;-72
2024/01/15 10:33:45;;;;;;;;;;;;;;;5.41;59.79;99280.03;4959457;28;7308;-72
2024/01/15 10:36:13;;;;;;;;;;;;;;;5.41;59.98;99272.41;4949766;28;7062;-73
2024/01/15 10:38:39;;;;;;;;;;;;;;;5.43;59.93;99262.28;4962344;28;6991;-73
2024/01/15 10:41:04;;;;;;;;;;;;;;;5.46;59.98;99256.50;4949401;28;6900;-73
2024/01/15 10:43:30;;;;;;;;;;;;;;;5.50;59.75;99263.47;4950477;28;6960;-73
2024/01/15 10:45:56;;;;;;;;;;;;;;;5.55;59.86;99256.97;4953442;28;6967;-72
2024/01/15 10:48:22;;;;;;;;;;;;;;;5.59;60.00;99255.44;4963976;28;6941;-72
2024/01/15 10:50:48;;;;;;;;;;;;;;;5.65;59.79;99253.19;4950906;28;7140;-72
2024/01/15 10:53:17;;;;;;;;;;;;;;;5.67;59.65;99254.16;4966407;28;6970;-73
2024/01/15 10:55:43;;;;;;;;;;;;;;;5.69;59.95;99257.66;4960257;28;6796;-73
2024/01/15 10:58:09;;;;;;;;;;;;;;;5.73;59.73;99249.34;4965607;28;6836;-72
2024/01/15 11:00:37;;;;;;;;;;;;;;;5.76;59.89;99262.25;4949357;28;7049;-72
2024/01/15 11:03:06;;;;;;;;;;;;;;;5.80;60.13;99260.72;4963439;28;7288;-72
2024/01/15 11:05:44;;;;;;;;;;;;;;;5.88;60.23;99261.09;4954852;28;7308;-72
2024/01/15 11:08:13;;;;;;;;;;;;;;;5.95;60.03;99261.44;4954301;28;7091;-74
2024/01/15 11:10:46;;;;;;;;;;;;;;;6.04;60.06;99258.53;4962618;28;6999;-73
2024/01/15 11:13:33;;;;;;;;;;;;;;;6.13;59.91;99258.06;4957148;28;6884;-73
2024/01/15 11:16:11;;;;;;;;;;;;;;;6.18;59.76;99266.81;4953778;28;11776;-74
2024/01/15 11:18:40;;;;;;;;;;;;;;;6.24;59.79;99267.09;4956699;28;6804;-74
2024/01/15 11:21:17;;;;;;;;;;;;;;;6.31;59.41;99267.38;4969243;28;6836;-75
2024/01/15 11:23:56;;;;;;;;;;;;;;;6.32;58.96;99256.41;4978239;28;7594;-74
2024/01/15 11:26:46;;;;;;;;;;;;;;;6.30;58.83;99258.84;4973426;28;6822;-74
2024/01/15 11:29:27;;;;;;;;;;;;;;;6.28;58.95;99257.03;4969696;28;6959;-76
2024/01/15 11:31:55;;;;;;;;;;;;;;;6.32;59.45;99256.41;4972140;28;7535;-75
2024/01/15 11:34:41;;;;;;;;;;;;;;;6.37;59.38;99257.47;4973760;28;7290;-75
2024/01/15 11:37:07;;;;;;;;;;;;;;;6.47;59.33;99254.56;4946861;28;7055;-74
2024/01/15 11:39:33;;;;;;;;;;;;;;;6.62;59.66;99268.78;4969884;28;7258;-74
2024/01/15 11:42:05;;;;;;;;;;;;;;;6.88;59.89;99257.22;4970385;28;6965;-74
2024/01/15 11:44:31;;;;;;;;;;;;;;;7.28;59.29;99257.22;4979072;28;6812;-73
2024/01/15 11:47:08;;;;;;;;;;;;;;;7.63;59.69;99251.06;4957571;28;7454;-74
2024/01/15 11:50:00;;;;;;;;;;;;;;;8.01;57.61;99247.44;4947742;28;6776;-76
2024/01/15 11:52:31;;;;;;;;;;;;;;;8.20;57.13;99239.69;4956809;28;6982;-74
2024/01/15 11:55:21;;;;;;;;;;;;;;;8.21;56.29;99243.13;4953654;28;6884;-75
2024/01/15 11:57:52;;;;;;;;;;;;;;;8.14;56.22;99249.69;4965635;28;6831;-75
2024/01/15 12:00:19;;;;;;;;;;;;;;;8.06;56.11;99244.28;4965305;28;6891;-75
2024/01/15 12:02:47;;;;;;;;;;;;;;;7.94;55.47;99253.13;4950958;28;7250;-74
2024/01/15 12:05:16;;;;;;;;;;;;;;;7.75;56.74;99254.94;4956810;28;6971;-73
2024/01/15 12:07:47;;;;;;;;;;;;;;;7.55;56.46;99252.44;4969857;28;7131;-72
2024/01/15 12:10:21;;;;;;;;;;;;;;;7.35;57.06;99249.03;4982517;28;6841;-72
2024/01/15 12:13:14;;;;;;;;;;;;;;;7.18;56.40;99253.41;4970095;28;9366;-73
2024/01/15 12:15:41;;;;;;;;;;;;;;;7.03;56.77;99256.16;4955853;28;6788;-76
2024/01/15 12:18:09;;;;;;;;;;;;;;;6.91;57.17;99262.47;4970896;28;6944;-75
2024/01/15 12:20:36;;;;;;;;;;;;;;;6.78;56.37;99261.06;4952392;28;6872;-75
2024/01/15 12:23:06;;;;;;;;;;;;;;;6.65;56.90;99258.72;4970300;28;6776;-74
2024/01/15 12:25:33;;;;;;;;;;;;;;;6.51;57.81;99253.91;4964247;28;7003;-75
2024/01/15 12:28:01;;;;;;;;;;;;;;;6.44;57.86;99267.13;4947963;28;6994;-74
2024/01/15 12:30:33;;;;;;;;;;;;;;;6.38;57.89;99274.50;4962930;28;6796;-73
2024/01/15 12:33:04;;;;;;;;;;;;;;;6.34;58.31;99270.06;4961685;28;6804;-75
2024/01/15 12:35:30;;;;;;;;;;;;;;;6.32;58.52;99281.84;4930515;28;7094;-75
2024/01/15 12:37:55;;;;;;;;;;;;;;;6.30;57.99;99281.75;4941795;28;7449;-74
2024/01/15 12:40:23;;;;;;;;;;;;;;;6.30;58.35;99278.38;4960385;28;6975;-75
2024/01/15 12:42:49;;;;;;;;;;;;;;;6.31;58.06;99280.09;4946320;28;6993;-75
2024/01/15 12:45:15;;;;;;;;;;;;;;;6.30;58.23;99276.66;4959617;28;6800;-75
2024/01/15 12:47:42;;;;;;;;;;;;;;;6.28;58.69;99282.47;4959076;28;6955;-75
2024/01/15 12:50:10;;;;;;;;;;;;;;;6.25;58.06;99276.47;4944720;28;6794;-74
2024/01/15 12:52:37;;;;;;;;;;;;;;;6.23;58.62;99275.53;4925200;28;7270;-76
2024/01/15 12:55:08;;;;;;;;;;;;;;;6.27;59.00;99285.84;4946939;28;7034;-73
2024/01/15 12:57:37;;;;;;;;;;;;;;;6.34;59.32;99286.22;4945241;28;6952;-76
2024/01/15 13:00:11;;;;;;;;;;;;;;;6.43;59.16;99283.22;4948620;28;6996;-76
2024/01/15 13:02:40;;;;;;;;;;;;;;;6.56;59.62;99296.50;4946252;28;11610;-75
2024/01/15 13:05:08;;;;;;;;;;;;;;;6.67;58.78;99296.22;4958598;28;6796;-76